createdAt,value
2023-03-26T00:00:38.161Z,81.2578
2023-03-26T00:01:39.501Z,80.7007
2023-03-26T00:02:40.141Z,81.4973
2023-03-26T00:03:41.588Z,81.5069
2023-03-26T00:04:41.662Z,81.2497
2023-03-26T00:06:42.941Z,82.1124
2023-03-26T00:07:42.974Z,81.8726
2023-03-26T00:08:44.215Z,81.3550
2023-03-26T00:09:44.225Z,81.3723
2023-03-26T00:10:45.617Z,81.0134
2023-03-26T00:11:45.612Z,81.7143
2023-03-26T00:12:45.629Z,81.6239
2023-03-26T00:13:46.847Z,81.1230
2023-03-26T00:14:46.881Z,81.0346
2023-03-26T00:15:48.127Z,81.6091
2023-03-26T00:16:48.530Z,81.5070
2023-03-26T00:17:48.566Z,81.7451
2023-03-26T00:18:49.433Z,79.9294
2023-03-26T00:19:50.897Z,79.1352
2023-03-26T00:20:52.021Z,80.5351
2023-03-26T00:22:53.116Z,80.1591
2023-03-26T00:23:53.420Z,82.2197
2023-03-26T00:24:54.638Z,82.4477
2023-03-26T00:25:55.548Z,83.4180
2023-03-26T00:26:55.832Z,84.6855
2023-03-26T00:27:57.048Z,81.6130
2023-03-26T00:28:57.103Z,83.9491
2023-03-26T00:29:58.272Z,83.9879
2023-03-26T00:30:58.534Z,82.8824
2023-03-26T00:31:58.570Z,84.2538
2023-03-26T00:32:58.820Z,86.4251
2023-03-26T00:34:00.083Z,85.5545
2023-03-26T00:35:00.067Z,85.2447
2023-03-26T00:36:05.181Z,82.2629
2023-03-26T00:37:05.139Z,80.8808
2023-03-26T00:38:06.443Z,81.2512
2023-03-26T00:39:06.866Z,81.0389
2023-03-26T00:40:07.231Z,81.8232
2023-03-26T00:41:07.319Z,80.4180
2023-03-26T00:42:07.522Z,81.2945
2023-03-26T00:43:07.635Z,81.4096
2023-03-26T00:44:08.948Z,81.4239
2023-03-26T00:45:08.968Z,79.5333
2023-03-26T00:46:10.353Z,82.5219
2023-03-26T00:47:10.913Z,83.8504
2023-03-26T00:48:11.343Z,86.0938
2023-03-26T00:49:12.054Z,82.9136
2023-03-26T00:50:12.087Z,84.7910
2023-03-26T00:51:13.259Z,84.1112
2023-03-26T00:52:13.267Z,86.0418
2023-03-26T00:53:14.729Z,86.8607
2023-03-26T00:54:14.728Z,84.3753
2023-03-26T00:55:14.746Z,83.7458
2023-03-26T00:56:15.950Z,85.8563
2023-03-26T00:57:34.548Z,87.3031
2023-03-26T00:58:20.599Z,88.1062
2023-03-26T00:59:20.607Z,87.9422
2023-03-26T01:00:22.011Z,88.4801
2023-03-26T01:01:22.043Z,88.6343
2023-03-26T01:02:22.250Z,88.1055
2023-03-26T01:03:27.840Z,88.2461
2023-03-26T01:05:24.364Z,85.5089
2023-03-26T01:06:24.404Z,86.1165
2023-03-26T01:07:25.556Z,86.0864
2023-03-26T01:08:25.610Z,87.0739
2023-03-26T01:09:26.793Z,85.5248
2023-03-26T01:10:28.131Z,86.4463
2023-03-26T01:11:29.438Z,87.9962
2023-03-26T01:12:30.657Z,87.5867
2023-03-26T01:13:30.801Z,88.0743
2023-03-26T01:14:32.007Z,89.3201
2023-03-26T01:15:32.081Z,89.2554
2023-03-26T01:16:32.380Z,89.1097
2023-03-26T01:17:32.487Z,89.0740
2023-03-26T01:18:33.672Z,88.5704
2023-03-26T01:19:33.719Z,88.6092
2023-03-26T01:20:35.117Z,87.9578
2023-03-26T01:21:36.287Z,89.3555
2023-03-26T01:22:37.597Z,90.2780
2023-03-26T01:23:38.885Z,90.5155
2023-03-26T01:24:38.899Z,90.0383
2023-03-26T01:25:40.238Z,90.5771
2023-03-26T01:26:41.410Z,90.7445
2023-03-26T01:29:43.831Z,91.5285
2023-03-26T01:30:43.786Z,91.7098
2023-03-26T01:31:45.113Z,91.6441
2023-03-26T01:32:46.134Z,91.9245
2023-03-26T01:33:46.194Z,92.2507
2023-03-26T01:34:46.254Z,91.9804
2023-03-26T01:35:47.571Z,92.1316
2023-03-26T01:36:47.797Z,92.3939
2023-03-26T01:37:48.989Z,92.6085
2023-03-26T01:38:49.599Z,92.7050
2023-03-26T01:39:51.162Z,92.5904
2023-03-26T01:40:51.786Z,92.5205
2023-03-26T01:41:51.861Z,91.2554
2023-03-26T01:42:53.094Z,90.1286
2023-03-26T01:43:53.076Z,90.2797
2023-03-26T01:44:54.405Z,89.3233
2023-03-26T01:45:55.875Z,90.0102
2023-03-26T01:46:56.481Z,90.2729
2023-03-26T01:47:56.499Z,90.6338
2023-03-26T01:48:56.566Z,91.2278
2023-03-26T01:49:56.644Z,90.5584
2023-03-26T01:50:56.794Z,87.8388
2023-03-26T01:51:58.131Z,87.7048
2023-03-26T01:52:59.355Z,90.3433
2023-03-26T01:53:59.442Z,89.9916
2023-03-26T01:55:00.701Z,91.1830
2023-03-26T01:56:00.745Z,90.0702
2023-03-26T01:57:00.758Z,89.1942
2023-03-26T01:58:00.842Z,90.9063
2023-03-26T01:59:02.024Z,90.2587
2023-03-26T02:00:03.328Z,90.9302
2023-03-26T02:01:03.512Z,90.2346
2023-03-26T02:02:03.711Z,90.9435
2023-03-26T02:03:04.982Z,91.5692
2023-03-26T02:04:05.156Z,91.9622
2023-03-26T02:06:05.681Z,89.6667
2023-03-26T02:07:06.785Z,90.8559
2023-03-26T02:08:07.108Z,88.1773
2023-03-26T02:09:08.350Z,88.8509
2023-03-26T02:10:08.423Z,87.2022
2023-03-26T02:11:09.878Z,88.1128
2023-03-26T02:12:09.895Z,88.5547
2023-03-26T02:13:09.922Z,87.0398
2023-03-26T02:14:11.121Z,85.6401
2023-03-26T02:15:11.165Z,84.8967
2023-03-26T02:16:11.147Z,86.2396
2023-03-26T02:17:11.470Z,87.0271
2023-03-26T02:18:11.569Z,86.6104
2023-03-26T02:19:11.641Z,86.7164
2023-03-26T02:20:12.820Z,87.2510
2023-03-26T02:21:12.881Z,88.5795
2023-03-26T02:22:14.213Z,86.9950
2023-03-26T02:23:15.533Z,86.6217
2023-03-26T02:24:15.632Z,88.5494
2023-03-26T02:25:16.862Z,88.8672
2023-03-26T02:27:17.851Z,90.8057
2023-03-26T02:28:17.889Z,90.2910
2023-03-26T02:29:19.325Z,88.9936
2023-03-26T02:30:20.550Z,90.4173
2023-03-26T02:31:20.636Z,88.6032
2023-03-26T02:32:20.714Z,88.7612
2023-03-26T02:33:21.322Z,89.5708
2023-03-26T02:34:22.599Z,89.8043
2023-03-26T02:35:22.959Z,89.2126
2023-03-26T02:37:23.641Z,89.7479
2023-03-26T02:38:25.093Z,89.4009
2023-03-26T02:39:25.090Z,90.5846
2023-03-26T02:40:25.423Z,90.6505
2023-03-26T02:41:26.644Z,90.3972
2023-03-26T02:42:26.771Z,89.6766
2023-03-26T02:43:27.947Z,88.6947
2023-03-26T02:45:29.323Z,88.1484
2023-03-26T02:46:29.531Z,87.0690
2023-03-26T02:47:29.936Z,85.6885
2023-03-26T02:48:29.912Z,85.5883
2023-03-26T02:49:30.020Z,85.9752
2023-03-26T02:50:30.026Z,84.7019
2023-03-26T02:51:30.549Z,85.0198
2023-03-26T02:52:31.832Z,84.5479
2023-03-26T02:53:32.110Z,84.5465
2023-03-26T02:54:32.061Z,84.5317
2023-03-26T02:55:32.160Z,85.9531
2023-03-26T02:56:33.425Z,85.8334
2023-03-26T02:57:33.702Z,83.9066
2023-03-26T02:58:33.749Z,84.5364
2023-03-26T02:59:33.881Z,84.7943
2023-03-26T03:00:34.121Z,85.3404
2023-03-26T03:01:34.607Z,84.3324
2023-03-26T03:02:34.730Z,85.7096
2023-03-26T03:03:35.440Z,85.4383
2023-03-26T03:04:35.611Z,85.4752
2023-03-26T03:05:35.629Z,86.1839
2023-03-26T03:06:35.738Z,84.7583
2023-03-26T03:07:37.065Z,84.9102
2023-03-26T03:08:37.217Z,86.8804
2023-03-26T03:09:38.512Z,86.4589
2023-03-26T03:10:38.621Z,87.1237
2023-03-26T03:11:39.948Z,87.1938
2023-03-26T03:12:39.994Z,86.3045
2023-03-26T03:13:41.488Z,87.3331
2023-03-26T03:14:42.782Z,87.8625
2023-03-26T03:15:42.958Z,87.8183
2023-03-26T03:16:43.101Z,87.3450
2023-03-26T03:17:43.578Z,88.3792
2023-03-26T03:18:43.662Z,88.9875
2023-03-26T03:19:43.783Z,89.7509
2023-03-26T03:20:43.835Z,89.6008
2023-03-26T03:21:43.991Z,89.7475
2023-03-26T03:22:45.284Z,90.6057
2023-03-26T03:23:45.395Z,90.1623
2023-03-26T03:24:46.683Z,90.7549
2023-03-26T03:25:46.791Z,89.8350
2023-03-26T03:26:47.920Z,91.5542
2023-03-26T03:27:47.876Z,90.7440
2023-03-26T03:28:48.016Z,91.2451
2023-03-26T03:29:49.304Z,90.5793
2023-03-26T03:30:49.551Z,89.1930
2023-03-26T03:31:50.106Z,89.0930
2023-03-26T03:32:50.695Z,89.6730
2023-03-26T03:33:50.845Z,89.5521
2023-03-26T03:34:51.004Z,92.1332
2023-03-26T03:35:51.327Z,88.1542
2023-03-26T03:37:52.740Z,89.7857
2023-03-26T03:38:54.070Z,91.5150
2023-03-26T03:39:54.242Z,89.6947
2023-03-26T03:40:54.253Z,89.6827
2023-03-26T03:42:55.664Z,92.8538
2023-03-26T03:43:55.929Z,92.4040
2023-03-26T03:44:56.100Z,93.5192
2023-03-26T03:45:56.682Z,94.4484
2023-03-26T03:46:57.284Z,94.6658
2023-03-26T03:47:57.674Z,94.5653
2023-03-26T03:48:57.942Z,95.0721
2023-03-26T03:49:59.215Z,94.2264
2023-03-26T03:50:59.523Z,93.6191
2023-03-26T03:51:59.540Z,94.7374
2023-03-26T03:52:59.965Z,94.2290
2023-03-26T03:54:00.002Z,94.0111
2023-03-26T03:55:00.158Z,92.8364
2023-03-26T03:56:00.348Z,92.3643
2023-03-26T03:57:00.770Z,93.1836
2023-03-26T03:58:00.768Z,92.1349
2023-03-26T03:59:00.886Z,91.8089
2023-03-26T04:00:01.684Z,90.8839
2023-03-26T04:01:03.037Z,89.4685
2023-03-26T04:02:03.181Z,90.5537
2023-03-26T04:03:03.695Z,90.3965
2023-03-26T04:04:04.723Z,90.1399
2023-03-26T04:05:04.950Z,90.2223
2023-03-26T04:06:05.169Z,90.2150
2023-03-26T04:07:05.152Z,90.1547
2023-03-26T04:08:05.331Z,90.0667
2023-03-26T04:10:08.095Z,88.9636
2023-03-26T04:11:08.225Z,89.5306
2023-03-26T04:12:08.221Z,91.6954
2023-03-26T04:13:08.318Z,89.3512
2023-03-26T04:14:08.336Z,88.9503
2023-03-26T04:15:08.495Z,89.6898
2023-03-26T04:16:08.637Z,92.1677
2023-03-26T04:17:08.932Z,90.9129
2023-03-26T04:18:09.081Z,90.2817
2023-03-26T04:19:09.240Z,88.6334
2023-03-26T04:20:09.289Z,91.0045
2023-03-26T04:21:09.477Z,90.1386
2023-03-26T04:22:09.481Z,92.3334
2023-03-26T04:23:09.619Z,90.4984
2023-03-26T04:24:10.879Z,91.8452
2023-03-26T04:25:11.474Z,92.6507
2023-03-26T04:26:11.622Z,91.8623
2023-03-26T04:27:11.650Z,93.2735
2023-03-26T04:28:11.817Z,90.3427
2023-03-26T04:29:13.157Z,90.1616
2023-03-26T04:31:14.465Z,92.0627
2023-03-26T04:32:14.950Z,89.1945
2023-03-26T04:33:15.169Z,87.7153
2023-03-26T04:34:15.375Z,87.8925
2023-03-26T04:35:15.353Z,88.2548
2023-03-26T04:36:15.771Z,89.7438
2023-03-26T04:37:15.763Z,90.1487
2023-03-26T04:39:15.836Z,90.1179
2023-03-26T04:40:16.033Z,88.9644
2023-03-26T04:41:16.014Z,89.3891
2023-03-26T04:42:16.119Z,87.8200
2023-03-26T04:43:16.147Z,88.6164
2023-03-26T04:44:16.217Z,90.9004
2023-03-26T04:45:17.507Z,91.0754
2023-03-26T04:46:17.702Z,88.6244
2023-03-26T04:47:17.781Z,88.3577
2023-03-26T04:48:18.444Z,88.8317
2023-03-26T04:49:19.926Z,87.3056
2023-03-26T04:50:21.213Z,89.6520
2023-03-26T04:51:21.428Z,88.8812
2023-03-26T04:52:21.446Z,87.6323
2023-03-26T04:53:22.598Z,88.1723
2023-03-26T04:54:24.094Z,89.4789
2023-03-26T04:55:25.430Z,90.8664
2023-03-26T04:56:25.581Z,90.0084
2023-03-26T04:57:25.731Z,88.8890
2023-03-26T04:58:25.856Z,88.1137
2023-03-26T04:59:25.858Z,88.0124
2023-03-26T05:00:26.023Z,88.5696
2023-03-26T05:01:26.036Z,89.5276
2023-03-26T05:02:26.350Z,89.0534
2023-03-26T05:03:27.002Z,88.7541
2023-03-26T05:04:27.618Z,90.2434
2023-03-26T05:05:27.682Z,88.6853
2023-03-26T05:06:28.525Z,88.6595
2023-03-26T05:07:28.520Z,89.7771
2023-03-26T05:08:28.733Z,88.8906
2023-03-26T05:09:28.709Z,90.0452
2023-03-26T05:10:28.771Z,91.2841
2023-03-26T05:11:29.563Z,92.0391
2023-03-26T05:12:29.697Z,90.5091
2023-03-26T05:13:29.750Z,90.0231
2023-03-26T05:14:30.054Z,90.3600
2023-03-26T05:15:31.582Z,92.0567
2023-03-26T05:16:31.944Z,89.8600
2023-03-26T05:17:32.381Z,89.8901
2023-03-26T05:18:32.537Z,88.4335
2023-03-26T05:19:32.687Z,88.5974
2023-03-26T05:20:32.697Z,90.5608
2023-03-26T05:21:32.834Z,89.4740
2023-03-26T05:23:34.146Z,91.0313
2023-03-26T05:24:34.166Z,88.3123
2023-03-26T05:25:34.353Z,87.4633
2023-03-26T05:26:34.315Z,86.9630
2023-03-26T05:27:34.431Z,87.2606
2023-03-26T05:28:35.722Z,88.3662
2023-03-26T05:29:35.830Z,89.1131
2023-03-26T05:30:36.182Z,88.7441
2023-03-26T05:31:36.613Z,90.4742
2023-03-26T05:32:36.783Z,89.4042
2023-03-26T05:33:36.856Z,90.4034
2023-03-26T05:34:37.162Z,91.1148
2023-03-26T05:35:37.460Z,91.1600
2023-03-26T05:36:37.733Z,89.6121
2023-03-26T05:37:38.010Z,88.2308
2023-03-26T05:38:38.462Z,88.4271
2023-03-26T05:39:38.626Z,89.1814
2023-03-26T05:40:39.067Z,90.7796
2023-03-26T05:41:39.323Z,91.5846
2023-03-26T05:42:39.430Z,90.3536
2023-03-26T05:43:39.702Z,91.4062
2023-03-26T05:44:39.892Z,93.0027
2023-03-26T05:45:40.184Z,92.8016
2023-03-26T05:46:40.487Z,92.5870
2023-03-26T05:47:41.106Z,93.4168
2023-03-26T05:48:41.663Z,94.3769
2023-03-26T05:49:41.744Z,94.1414
2023-03-26T05:50:41.988Z,94.8984
2023-03-26T05:52:42.510Z,95.4348
2023-03-26T05:53:42.583Z,95.8973
2023-03-26T05:55:44.085Z,95.5553
2023-03-26T05:56:44.884Z,94.7648
2023-03-26T05:57:45.185Z,96.0025
2023-03-26T05:58:45.379Z,95.7812
2023-03-26T05:59:45.424Z,95.5204
2023-03-26T06:00:45.682Z,96.7181
2023-03-26T06:01:46.269Z,96.8847
2023-03-26T06:02:46.899Z,97.1820
2023-03-26T06:04:48.173Z,97.5200
2023-03-26T06:05:48.629Z,97.9701
2023-03-26T06:06:48.677Z,98.2496
2023-03-26T06:07:48.967Z,98.2959
2023-03-26T06:08:49.044Z,97.7387
2023-03-26T06:09:50.425Z,98.0287
2023-03-26T06:10:51.071Z,98.0418
2023-03-26T06:11:52.068Z,98.0695
2023-03-26T06:12:52.134Z,98.0454
2023-03-26T06:14:53.640Z,98.1448
2023-03-26T06:15:53.942Z,98.2993
2023-03-26T06:16:54.090Z,97.6013
2023-03-26T06:17:54.296Z,97.3056
2023-03-26T06:18:59.555Z,96.6766
2023-03-26T06:19:59.813Z,95.5043
2023-03-26T06:21:00.301Z,95.6374
2023-03-26T06:22:00.515Z,95.3778
2023-03-26T06:23:00.583Z,96.4316
2023-03-26T06:24:00.809Z,96.9123
2023-03-26T06:25:01.068Z,97.0917
2023-03-26T06:26:01.441Z,97.1301
2023-03-26T06:28:01.626Z,95.6982
2023-03-26T06:29:01.670Z,96.7382
2023-03-26T06:30:01.939Z,97.0468
2023-03-26T06:32:16.179Z,95.3363
2023-03-26T06:33:04.441Z,95.8695
2023-03-26T06:34:04.595Z,96.5979
2023-03-26T06:35:04.724Z,97.0685
2023-03-26T06:36:05.169Z,97.4755
2023-03-26T06:37:05.492Z,97.6427
2023-03-26T06:38:05.614Z,97.7265
2023-03-26T06:39:09.782Z,97.7625
2023-03-26T06:40:09.890Z,97.1132
2023-03-26T06:41:10.575Z,97.5984
2023-03-26T06:42:10.910Z,97.8356
2023-03-26T06:44:12.004Z,98.1238
2023-03-26T06:45:12.112Z,97.9329
2023-03-26T06:46:12.519Z,98.1098
2023-03-26T06:47:12.630Z,97.7947
2023-03-26T06:48:13.063Z,97.9552
2023-03-26T06:50:13.286Z,98.2106
2023-03-26T06:51:13.542Z,98.3077
2023-03-26T06:52:13.736Z,97.9434
2023-03-26T06:53:13.861Z,98.0872
2023-03-26T06:54:14.169Z,97.8690
2023-03-26T06:55:14.247Z,98.0671
2023-03-26T06:56:15.220Z,98.3743
2023-03-26T06:57:15.858Z,98.4808
2023-03-26T06:58:15.975Z,98.3875
2023-03-26T06:59:16.249Z,97.8779
2023-03-26T07:00:16.387Z,98.1590
2023-03-26T07:02:16.670Z,98.9009
2023-03-26T07:03:17.203Z,97.8882
2023-03-26T07:04:18.402Z,98.4262
2023-03-26T07:05:18.887Z,98.6416
2023-03-26T07:06:18.981Z,98.6973
2023-03-26T07:07:19.274Z,97.8917
2023-03-26T07:08:19.941Z,96.4790
2023-03-26T07:09:20.167Z,96.9476
2023-03-26T07:10:20.273Z,94.7420
2023-03-26T07:11:21.138Z,96.5226
2023-03-26T07:12:21.411Z,94.8039
2023-03-26T07:13:21.453Z,93.0617
2023-03-26T07:14:22.561Z,93.3246
2023-03-26T07:17:23.490Z,91.8324
2023-03-26T07:18:23.935Z,91.8668
2023-03-26T07:19:24.024Z,89.9972
2023-03-26T07:20:24.445Z,91.9806
2023-03-26T07:21:24.921Z,91.8906
2023-03-26T07:22:25.153Z,92.2127
2023-03-26T07:23:25.554Z,92.1926
2023-03-26T07:24:25.846Z,91.2370
2023-03-26T07:25:26.000Z,91.7469
2023-03-26T07:26:26.212Z,91.6469
2023-03-26T07:27:26.342Z,90.9424
2023-03-26T07:28:26.752Z,91.1152
2023-03-26T07:29:27.621Z,91.0740
2023-03-26T07:30:27.705Z,92.1286
2023-03-26T07:31:28.064Z,92.1586
2023-03-26T07:32:28.764Z,92.4711
2023-03-26T07:33:29.061Z,92.8003
2023-03-26T07:34:29.237Z,92.7677
2023-03-26T07:35:29.644Z,93.0116
2023-03-26T07:36:29.738Z,93.0999
2023-03-26T07:37:30.023Z,93.0060
2023-03-26T07:38:30.103Z,93.4165
2023-03-26T07:39:31.304Z,92.4027
2023-03-26T07:40:31.597Z,92.6383
2023-03-26T07:41:32.247Z,93.0128
2023-03-26T07:42:32.414Z,92.5203
2023-03-26T07:43:32.636Z,92.7740
2023-03-26T07:44:34.590Z,93.3146
2023-03-26T07:45:33.335Z,94.3638
2023-03-26T07:46:33.709Z,92.7844
2023-03-26T07:47:34.141Z,91.6136
2023-03-26T07:50:35.677Z,93.1570
2023-03-26T07:51:36.363Z,93.0287
2023-03-26T07:52:36.512Z,91.8897
2023-03-26T07:53:36.764Z,92.3566
2023-03-26T07:54:36.924Z,92.2836
2023-03-26T07:55:37.186Z,92.6144
2023-03-26T07:56:37.373Z,92.3728
2023-03-26T07:57:38.369Z,92.3051
2023-03-26T07:58:38.475Z,91.6413
2023-03-26T07:59:38.812Z,92.5976
2023-03-26T08:00:38.944Z,93.9834
2023-03-26T08:01:39.167Z,92.9604
2023-03-26T08:02:39.352Z,93.6245
2023-03-26T08:03:40.436Z,92.8659
2023-03-26T08:04:41.494Z,91.8655
2023-03-26T08:05:42.302Z,92.6130
2023-03-26T08:06:42.549Z,91.8238
2023-03-26T08:07:43.522Z,92.5168
2023-03-26T08:08:43.805Z,93.3498
2023-03-26T08:09:44.107Z,94.7330
2023-03-26T08:10:44.211Z,93.9936
2023-03-26T08:11:44.977Z,93.2145
2023-03-26T08:12:45.222Z,94.3196
2023-03-26T08:13:45.471Z,94.8072
2023-03-26T08:14:45.703Z,93.9708
2023-03-26T08:15:46.203Z,93.5387
2023-03-26T08:18:47.060Z,93.6923
2023-03-26T08:19:47.502Z,93.5818
2023-03-26T08:20:47.717Z,93.3393
2023-03-26T08:21:48.089Z,93.5753
2023-03-26T08:22:48.232Z,94.0742
2023-03-26T08:23:51.963Z,93.8216
2023-03-26T08:25:51.195Z,94.3690
2023-03-26T08:26:51.640Z,94.9344
2023-03-26T08:28:52.074Z,93.6399
2023-03-26T08:29:52.287Z,94.3375
2023-03-26T08:30:53.241Z,94.8167
2023-03-26T08:31:53.242Z,95.0601
2023-03-26T08:32:53.696Z,94.9639
2023-03-26T08:33:53.908Z,94.9863
2023-03-26T08:34:54.322Z,95.0230
2023-03-26T08:35:55.075Z,95.6043
2023-03-26T08:36:55.558Z,95.7316
2023-03-26T08:37:55.756Z,95.1025
2023-03-26T08:38:56.111Z,94.4308
2023-03-26T08:39:56.362Z,94.5244
2023-03-26T08:40:57.372Z,94.8898
2023-03-26T08:41:57.881Z,94.5498
2023-03-26T08:42:58.190Z,93.8661
2023-03-26T08:43:58.548Z,93.9048
2023-03-26T08:44:58.958Z,93.8225
2023-03-26T08:46:59.526Z,93.3667
2023-03-26T08:47:59.990Z,93.2578
2023-03-26T08:49:00.166Z,93.9584
2023-03-26T08:50:00.860Z,93.5535
2023-03-26T08:51:01.728Z,92.8885
2023-03-26T08:52:02.078Z,93.0593
2023-03-26T08:53:02.255Z,93.7866
2023-03-26T08:54:02.567Z,92.7856
2023-03-26T08:55:02.932Z,92.6541
2023-03-26T08:56:03.303Z,93.7988
2023-03-26T08:57:03.712Z,93.9117
2023-03-26T08:58:04.818Z,93.4486
2023-03-26T09:00:05.915Z,93.6472
2023-03-26T09:01:07.041Z,93.7620
2023-03-26T09:02:07.672Z,94.3287
2023-03-26T09:03:08.399Z,93.4433
2023-03-26T09:04:08.817Z,93.4311
2023-03-26T09:05:09.062Z,93.9526
2023-03-26T09:06:09.268Z,95.2223
2023-03-26T09:07:09.561Z,94.6268
2023-03-26T09:08:09.730Z,95.0920
2023-03-26T09:09:18.766Z,94.6610
2023-03-26T09:10:11.662Z,94.2736
2023-03-26T09:11:12.567Z,94.8532
2023-03-26T09:12:12.919Z,94.8908
2023-03-26T09:13:13.389Z,95.4432
2023-03-26T09:15:14.020Z,94.2485
2023-03-26T09:16:14.596Z,94.1706
2023-03-26T09:17:15.073Z,94.3667
2023-03-26T09:18:15.573Z,92.4476
2023-03-26T09:19:15.788Z,93.4160
2023-03-26T09:21:16.809Z,94.2045
2023-03-26T09:22:17.114Z,93.7499
2023-03-26T09:23:17.328Z,94.1918
2023-03-26T09:24:17.715Z,93.3934
2023-03-26T09:25:17.956Z,92.6849
2023-03-26T09:26:18.357Z,92.4467
2023-03-26T09:27:18.523Z,92.8255
2023-03-26T09:28:18.838Z,93.0086
2023-03-26T09:29:18.975Z,92.8721
2023-03-26T09:30:20.014Z,91.5763
2023-03-26T09:31:20.356Z,91.7591
2023-03-26T09:32:21.103Z,91.0525
2023-03-26T09:33:21.476Z,91.8289
2023-03-26T09:34:21.801Z,92.1293
2023-03-26T09:35:21.946Z,92.3011
2023-03-26T09:36:22.630Z,91.7503
2023-03-26T09:37:22.840Z,91.6915
2023-03-26T09:38:23.654Z,91.5503
2023-03-26T09:39:24.025Z,91.4577
2023-03-26T09:40:24.127Z,90.7121
2023-03-26T09:42:25.077Z,90.4412
2023-03-26T09:43:25.402Z,90.4194
2023-03-26T09:44:25.700Z,89.7123
2023-03-26T09:45:25.996Z,90.2508
2023-03-26T09:46:26.471Z,89.3316
2023-03-26T09:47:27.028Z,89.8565
2023-03-26T09:48:27.404Z,90.3565
2023-03-26T09:49:27.810Z,89.4454
2023-03-26T09:50:28.029Z,89.2718
2023-03-26T09:51:28.445Z,89.1454
2023-03-26T09:52:28.668Z,88.3533
2023-03-26T09:53:29.076Z,88.0136
2023-03-26T09:54:29.325Z,88.6769
2023-03-26T09:55:29.804Z,87.9744
2023-03-26T09:56:30.029Z,86.7278
2023-03-26T09:57:30.588Z,86.9175
2023-03-26T09:58:31.181Z,85.7794
2023-03-26T09:59:31.366Z,84.9156
2023-03-26T10:01:32.468Z,86.3468
2023-03-26T10:02:46.672Z,86.3079
2023-03-26T10:03:37.428Z,85.7861
2023-03-26T10:04:38.083Z,86.0927
2023-03-26T10:05:38.851Z,87.2718
2023-03-26T10:06:39.485Z,85.6687
2023-03-26T10:07:40.152Z,85.7169
2023-03-26T10:08:40.605Z,86.0316
2023-03-26T10:10:41.516Z,85.9180
2023-03-26T10:11:42.159Z,85.7929
2023-03-26T10:12:41.760Z,85.6536
2023-03-26T10:14:42.391Z,85.7910
2023-03-26T10:16:42.692Z,84.8361
2023-03-26T10:17:43.341Z,84.1084
2023-03-26T10:19:44.514Z,84.5202
2023-03-26T10:20:44.988Z,83.3548
2023-03-26T10:21:45.869Z,83.2452
2023-03-26T10:22:46.206Z,82.7471
2023-03-26T10:23:46.678Z,82.3411
2023-03-26T10:24:46.965Z,82.6156
2023-03-26T10:25:47.404Z,83.5876
2023-03-26T10:27:09.208Z,83.2280
2023-03-26T10:27:48.674Z,83.2399
2023-03-26T10:28:49.179Z,83.4153
2023-03-26T10:29:49.763Z,83.6669
2023-03-26T10:30:50.388Z,82.7299
2023-03-26T10:31:51.163Z,82.7953
2023-03-26T10:33:51.653Z,82.1854
2023-03-26T10:34:52.782Z,83.0384
2023-03-26T10:35:53.414Z,82.1305
2023-03-26T10:36:54.114Z,81.0031
2023-03-26T10:37:54.184Z,81.5027
2023-03-26T10:38:54.725Z,81.3311
2023-03-26T10:39:55.636Z,81.7096
2023-03-26T10:40:56.287Z,82.2342
2023-03-26T10:41:56.052Z,82.3323
2023-03-26T10:42:56.343Z,82.2034
2023-03-26T10:44:07.525Z,82.5827
2023-03-26T10:44:57.075Z,81.6309
2023-03-26T10:45:57.777Z,82.0015
2023-03-26T10:46:58.342Z,82.0879
2023-03-26T10:47:59.047Z,82.8543
2023-03-26T10:48:59.469Z,82.0681
2023-03-26T10:50:00.409Z,82.8131
2023-03-26T10:51:01.666Z,80.8187
2023-03-26T10:52:02.333Z,80.5018
2023-03-26T10:53:03.202Z,79.7493
2023-03-26T10:54:04.333Z,79.5948
2023-03-26T10:55:05.376Z,80.7183
2023-03-26T10:56:06.053Z,82.1690
2023-03-26T10:57:07.123Z,81.4495
2023-03-26T10:58:08.005Z,81.1927
2023-03-26T10:59:08.409Z,81.0244
2023-03-26T11:00:09.448Z,79.6721
2023-03-26T11:01:09.957Z,78.7608
2023-03-26T11:02:11.083Z,78.8239
2023-03-26T11:06:13.490Z,79.7599
2023-03-26T11:07:14.507Z,79.3880
2023-03-26T11:08:14.869Z,79.9832
2023-03-26T11:09:15.324Z,78.1211
2023-03-26T11:10:15.808Z,77.5144
2023-03-26T11:11:16.379Z,77.2594
2023-03-26T11:12:26.738Z,78.5370
2023-03-26T11:13:18.337Z,79.5953
2023-03-26T11:14:33.784Z,78.3133
2023-03-26T11:15:22.372Z,79.9183
2023-03-26T11:16:23.170Z,78.2943
2023-03-26T11:17:40.627Z,77.4557
2023-03-26T11:18:24.423Z,75.7224
2023-03-26T11:19:24.972Z,75.5685
2023-03-26T11:22:26.834Z,75.4734
2023-03-26T11:23:27.758Z,73.4457
2023-03-26T11:24:28.732Z,73.9200
2023-03-26T11:25:29.165Z,74.9288
2023-03-26T11:26:29.644Z,75.2340
2023-03-26T11:27:29.698Z,74.3840
2023-03-26T11:28:30.176Z,74.5212
2023-03-26T11:29:33.636Z,74.2381
2023-03-26T11:31:32.359Z,75.6308
2023-03-26T11:32:33.124Z,75.1844
2023-03-26T11:33:33.561Z,75.6051
2023-03-26T11:34:34.754Z,74.3797
2023-03-26T11:35:41.756Z,73.5306
2023-03-26T11:37:41.017Z,73.5261
2023-03-26T11:38:41.573Z,74.6575
2023-03-26T11:39:41.979Z,74.9963
2023-03-26T11:40:42.652Z,74.4287
2023-03-26T11:41:43.075Z,74.6568
2023-03-26T11:42:43.795Z,74.4507
2023-03-26T11:43:44.197Z,71.9681
2023-03-26T11:44:44.814Z,72.6229
2023-03-26T11:45:45.306Z,72.1306
2023-03-26T11:46:45.738Z,72.0438
2023-03-26T11:47:46.657Z,72.0698
2023-03-26T11:48:47.143Z,73.5330
2023-03-26T11:49:47.575Z,72.1274
2023-03-26T11:50:48.009Z,71.0778
2023-03-26T11:51:48.896Z,72.3560
2023-03-26T11:53:49.418Z,72.4322
2023-03-26T11:54:49.987Z,71.9969
2023-03-26T11:55:50.256Z,71.5419
2023-03-26T11:57:06.021Z,71.6907
2023-03-26T11:57:54.342Z,70.4024
2023-03-26T11:58:54.847Z,70.1847
2023-03-26T11:59:59.968Z,70.0898
2023-03-26T12:01:00.766Z,71.6068
2023-03-26T12:02:01.320Z,68.9873
2023-03-26T12:03:01.555Z,68.2474
2023-03-26T12:04:02.036Z,68.4989
2023-03-26T12:05:03.397Z,67.8216
2023-03-26T12:06:04.354Z,67.4130
2023-03-26T12:07:04.686Z,68.6967
2023-03-26T12:08:05.415Z,68.3494
2023-03-26T12:09:05.778Z,69.3259
2023-03-26T12:10:18.280Z,70.4355
2023-03-26T12:11:11.865Z,70.3014
2023-03-26T12:12:13.045Z,69.9227
2023-03-26T12:13:13.640Z,70.1223
2023-03-26T12:14:14.005Z,67.9584
2023-03-26T12:15:14.543Z,68.9777
2023-03-26T12:16:14.958Z,69.1890
2023-03-26T12:17:15.730Z,68.9173
2023-03-26T12:18:16.863Z,67.7147
2023-03-26T12:19:17.330Z,66.6871
2023-03-26T12:20:17.902Z,66.0020
2023-03-26T12:21:18.521Z,66.6367
2023-03-26T12:22:19.233Z,66.6415
2023-03-26T12:23:19.627Z,66.8172
2023-03-26T12:24:20.251Z,67.1526
2023-03-26T12:25:20.645Z,68.2104
2023-03-26T12:26:21.247Z,68.1563
2023-03-26T12:27:21.632Z,68.0025
2023-03-26T12:28:22.143Z,67.9429
2023-03-26T12:29:22.732Z,68.7429
2023-03-26T12:30:23.401Z,68.8792
2023-03-26T12:31:23.923Z,69.8989
2023-03-26T12:32:32.439Z,70.9694
2023-03-26T12:33:25.349Z,76.8539
2023-03-26T12:34:25.466Z,77.8639
2023-03-26T12:36:26.831Z,80.0551
2023-03-26T12:37:27.387Z,77.7225
2023-03-26T12:38:27.904Z,77.8788
2023-03-26T12:40:30.702Z,75.9814
2023-03-26T12:44:44.672Z,75.1987
2023-03-26T12:44:50.756Z,73.9955
2023-03-26T12:44:52.690Z,74.4248
2023-03-26T12:45:00.519Z,74.2767
2023-03-26T12:47:55.405Z,73.1429
2023-03-26T12:48:00.516Z,71.6506
2023-03-26T12:48:06.507Z,70.7031
2023-03-26T12:49:07.267Z,71.5802
2023-03-26T12:50:08.560Z,70.3516
2023-03-26T12:51:08.940Z,66.7533
2023-03-26T12:52:09.543Z,64.4476
2023-03-26T12:53:10.002Z,62.6877
2023-03-26T12:54:10.270Z,60.9847
2023-03-26T12:55:13.997Z,60.0524
2023-03-26T12:57:14.476Z,62.4925
2023-03-26T12:58:15.966Z,62.9611
2023-03-26T12:59:16.363Z,62.0939
2023-03-26T13:00:17.135Z,62.1185
2023-03-26T13:01:17.819Z,62.1603
2023-03-26T13:02:18.876Z,61.6762
2023-03-26T13:03:19.405Z,61.9399
2023-03-26T13:04:19.568Z,65.6382
2023-03-26T13:06:19.877Z,63.6509
2023-03-26T13:07:20.170Z,66.0781
2023-03-26T13:08:20.723Z,68.2973